This is the latest recevied weather packets stored in our database for station/object KR4BRU. If no packets are shown the sender has not sent any weather packets the latest 10 day(s).
| Time | Temp. | Humidity | Pressure | Rain* | Wind** | Luminosity | Snow |
|---|---|---|---|---|---|---|---|
| 1777667224 | 21.67° C | 33% | 1009.7 hPa | 0 mm | - | 290 W/m² | - |
| 1777666623 | 22.22° C | 32% | 1009.9 hPa | 0 mm | - | 280 W/m² | - |
| 1777666022 | 22.22° C | 33% | 1010.1 hPa | 0 mm | - | 301 W/m² | - |
| 1777665417 | 22.22° C | 33% | 1010.1 hPa | 0 mm | - | 401 W/m² | - |
| 1777664815 | 22.78° C | 32% | 1010.1 hPa | 0 mm | - | 453 W/m² | - |
| 1777664214 | 22.22° C | 34% | 1010.4 hPa | 0 mm | - | 435 W/m² | - |
| 1777663609 | 22.22° C | 31% | 1010.5 hPa | 0 mm | - | 446 W/m² | - |
| 1777663003 | 22.78° C | 35% | 1010.5 hPa | 0 mm | - | 377 W/m² | - |
| 1777662403 | 22.22° C | 35% | 1010.6 hPa | 0 mm | - | 283 W/m² | - |
| 1777661800 | 21.67° C | 34% | 1010.9 hPa | 0 mm | - | 608 W/m² | - |
| 1777661198 | 22.22° C | 34% | 1010.6 hPa | 0 mm | - | 300 W/m² | - |
| 1777660596 | 22.78° C | 36% | 1010.6 hPa | 0 mm | - | 364 W/m² | - |
| 1777659995 | 22.78° C | 34% | 1010.7 hPa | 0 mm | - | 498 W/m² | - |
| 1777659394 | 21.67° C | 34% | 1010.6 hPa | 0 mm | - | 371 W/m² | - |
| 1777658790 | 22.22° C | 31% | 1010.9 hPa | 0 mm | - | 429 W/m² | - |
| 1777658188 | 22.22° C | 31% | 1010.9 hPa | 0 mm | - | 373 W/m² | - |
| 1777657587 | 22.78° C | 33% | 1011 hPa | 0 mm | - | 358 W/m² | - |
| 1777656982 | 22.78° C | 32% | 1011.1 hPa | 0 mm | - | 434 W/m² | - |
| 1777656381 | 21.67° C | 31% | 1011 hPa | 0 mm | - | 383 W/m² | - |
| 1777655778 | 22.22° C | 33% | 1011 hPa | 0 mm | - | 343 W/m² | - |
| 1777655178 | 22.22° C | 33% | 1011.1 hPa | 0 mm | - | 419 W/m² | - |
| 1777654578 | 21.67° C | 34% | 1011.1 hPa | 0 mm | - | 500 W/m² | - |
| 1777653974 | 22.22° C | 33% | 1011.2 hPa | 0 mm | - | 591 W/m² | - |
| 1777653372 | 23.33° C | 32% | 1011.3 hPa | 0 mm | - | 386 W/m² | - |
| 1777652772 | 22.78° C | 31% | 1011.4 hPa | 0 mm | - | 607 W/m² | - |
* Rain latest hour (hover to see other rain measurements)
** Current wind speed in m/s (hover to see current wind gust speed)